sensor_id;sensor_type;location;lat;lon;timestamp;P1;durP1;ratioP1;P2;durP2;ratioP2
7340;SDS011;6870;50.944;6.932;2023-06-14T00:02:06;16.10;;;10.23;;
7340;SDS011;6870;50.944;6.932;2023-06-14T00:04:35;15.10;;;9.57;;
7340;SDS011;6870;50.944;6.932;2023-06-14T00:07:05;19.60;;;9.30;;
7340;SDS011;6870;50.944;6.932;2023-06-14T00:09:35;14.97;;;10.07;;
7340;SDS011;6870;50.944;6.932;2023-06-14T00:12:03;16.10;;;10.50;;
7340;SDS011;6870;50.944;6.932;2023-06-14T00:14:33;15.23;;;9.77;;
7340;SDS011;6870;50.944;6.932;2023-06-14T00:17:01;13.43;;;9.70;;
7340;SDS011;6870;50.944;6.932;2023-06-14T00:19:29;15.07;;;10.50;;
7340;SDS011;6870;50.944;6.932;2023-06-14T00:21:59;16.60;;;10.80;;
7340;SDS011;6870;50.944;6.932;2023-06-14T00:24:27;16.80;;;10.30;;
7340;SDS011;6870;50.944;6.932;2023-06-14T00:26:56;15.70;;;9.57;;
7340;SDS011;6870;50.944;6.932;2023-06-14T00:29:24;14.50;;;9.17;;
7340;SDS011;6870;50.944;6.932;2023-06-14T00:31:52;19.53;;;11.17;;
7340;SDS011;6870;50.944;6.932;2023-06-14T00:34:21;18.30;;;11.03;;
7340;SDS011;6870;50.944;6.932;2023-06-14T00:36:49;15.53;;;9.83;;
7340;SDS011;6870;50.944;6.932;2023-06-14T00:39:17;20.90;;;10.63;;
7340;SDS011;6870;50.944;6.932;2023-06-14T00:41:44;16.27;;;9.43;;
7340;SDS011;6870;50.944;6.932;2023-06-14T00:44:14;16.20;;;9.33;;
7340;SDS011;6870;50.944;6.932;2023-06-14T00:46:45;17.57;;;9.90;;
7340;SDS011;6870;50.944;6.932;2023-06-14T00:49:13;14.43;;;8.43;;
7340;SDS011;6870;50.944;6.932;2023-06-14T00:51:43;16.63;;;9.27;;
7340;SDS011;6870;50.944;6.932;2023-06-14T00:54:11;12.43;;;8.97;;
7340;SDS011;6870;50.944;6.932;2023-06-14T00:56:39;12.63;;;7.93;;
7340;SDS011;6870;50.944;6.932;2023-06-14T00:59:09;13.93;;;8.40;;
7340;SDS011;6870;50.944;6.932;2023-06-14T01:01:39;12.70;;;9.00;;
7340;SDS011;6870;50.944;6.932;2023-06-14T01:04:07;12.33;;;8.23;;
7340;SDS011;6870;50.944;6.932;2023-06-14T01:06:37;9.53;;;7.60;;
7340;SDS011;6870;50.944;6.932;2023-06-14T01:09:14;11.80;;;7.67;;
7340;SDS011;6870;50.944;6.932;2023-06-14T01:11:50;10.43;;;7.40;;
7340;SDS011;6870;50.944;6.932;2023-06-14T01:14:30;14.80;;;7.07;;
7340;SDS011;6870;50.944;6.932;2023-06-14T01:17:01;8.77;;;7.40;;
7340;SDS011;6870;50.944;6.932;2023-06-14T01:19:31;9.00;;;7.03;;
7340;SDS011;6870;50.944;6.932;2023-06-14T01:22:00;8.23;;;7.37;;
7340;SDS011;6870;50.944;6.932;2023-06-14T01:24:31;9.80;;;8.00;;
7340;SDS011;6870;50.944;6.932;2023-06-14T01:27:00;9.93;;;7.00;;
7340;SDS011;6870;50.944;6.932;2023-06-14T01:29:30;9.50;;;7.70;;
7340;SDS011;6870;50.944;6.932;2023-06-14T01:31:59;12.13;;;7.53;;
7340;SDS011;6870;50.944;6.932;2023-06-14T01:34:28;11.47;;;7.80;;
7340;SDS011;6870;50.944;6.932;2023-06-14T01:36:56;11.27;;;7.53;;
7340;SDS011;6870;50.944;6.932;2023-06-14T01:39:27;9.13;;;6.47;;
7340;SDS011;6870;50.944;6.932;2023-06-14T01:41:58;8.80;;;6.50;;
7340;SDS011;6870;50.944;6.932;2023-06-14T01:44:27;10.30;;;7.60;;
7340;SDS011;6870;50.944;6.932;2023-06-14T01:46:56;7.83;;;6.70;;
7340;SDS011;6870;50.944;6.932;2023-06-14T01:49:25;7.77;;;6.93;;
7340;SDS011;6870;50.944;6.932;2023-06-14T01:51:53;9.27;;;7.20;;
7340;SDS011;6870;50.944;6.932;2023-06-14T01:54:21;9.30;;;6.27;;
7340;SDS011;6870;50.944;6.932;2023-06-14T01:56:52;9.33;;;6.40;;
7340;SDS011;6870;50.944;6.932;2023-06-14T01:59:21;8.57;;;6.53;;
7340;SDS011;6870;50.944;6.932;2023-06-14T02:01:49;7.07;;;6.30;;
7340;SDS011;6870;50.944;6.932;2023-06-14T02:04:18;8.90;;;6.40;;
7340;SDS011;6870;50.944;6.932;2023-06-14T02:06:46;9.53;;;6.80;;
7340;SDS011;6870;50.944;6.932;2023-06-14T02:09:14;8.87;;;7.30;;
7340;SDS011;6870;50.944;6.932;2023-06-14T02:11:42;6.83;;;6.23;;
7340;SDS011;6870;50.944;6.932;2023-06-14T02:14:10;10.77;;;6.87;;
7340;SDS011;6870;50.944;6.932;2023-06-14T02:16:39;8.50;;;6.60;;
7340;SDS011;6870;50.944;6.932;2023-06-14T02:19:15;8.03;;;6.40;;
7340;SDS011;6870;50.944;6.932;2023-06-14T02:21:43;11.17;;;6.60;;
7340;SDS011;6870;50.944;6.932;2023-06-14T02:24:11;8.23;;;6.43;;
7340;SDS011;6870;50.944;6.932;2023-06-14T02:26:40;7.10;;;6.03;;
7340;SDS011;6870;50.944;6.932;2023-06-14T02:29:08;7.93;;;6.50;;
7340;SDS011;6870;50.944;6.932;2023-06-14T02:31:40;7.63;;;5.37;;
7340;SDS011;6870;50.944;6.932;2023-06-14T02:34:08;8.23;;;6.00;;
7340;SDS011;6870;50.944;6.932;2023-06-14T02:36:36;9.10;;;7.20;;
7340;SDS011;6870;50.944;6.932;2023-06-14T02:39:08;7.80;;;6.00;;
7340;SDS011;6870;50.944;6.932;2023-06-14T02:41:37;8.20;;;6.30;;
7340;SDS011;6870;50.944;6.932;2023-06-14T02:44:06;7.93;;;5.80;;
7340;SDS011;6870;50.944;6.932;2023-06-14T02:46:34;8.03;;;5.97;;
7340;SDS011;6870;50.944;6.932;2023-06-14T02:49:04;7.63;;;6.03;;
7340;SDS011;6870;50.944;6.932;2023-06-14T02:51:32;8.23;;;5.63;;
7340;SDS011;6870;50.944;6.932;2023-06-14T02:54:00;5.80;;;5.20;;
7340;SDS011;6870;50.944;6.932;2023-06-14T02:56:28;7.03;;;5.60;;
7340;SDS011;6870;50.944;6.932;2023-06-14T02:58:57;6.97;;;6.27;;
7340;SDS011;6870;50.944;6.932;2023-06-14T03:01:26;8.10;;;5.23;;
7340;SDS011;6870;50.944;6.932;2023-06-14T03:04:00;6.77;;;5.90;;
7340;SDS011;6870;50.944;6.932;2023-06-14T03:06:31;7.27;;;6.20;;
7340;SDS011;6870;50.944;6.932;2023-06-14T03:08:59;9.47;;;6.33;;
7340;SDS011;6870;50.944;6.932;2023-06-14T03:11:31;7.27;;;6.10;;
7340;SDS011;6870;50.944;6.932;2023-06-14T03:13:59;8.37;;;6.60;;
7340;SDS011;6870;50.944;6.932;2023-06-14T03:16:29;6.90;;;5.60;;
7340;SDS011;6870;50.944;6.932;2023-06-14T03:18:58;7.73;;;5.83;;
7340;SDS011;6870;50.944;6.932;2023-06-14T03:21:26;7.30;;;6.23;;
7340;SDS011;6870;50.944;6.932;2023-06-14T03:23:56;7.13;;;6.27;;
7340;SDS011;6870;50.944;6.932;2023-06-14T03:26:24;7.00;;;5.80;;
7340;SDS011;6870;50.944;6.932;2023-06-14T03:28:52;6.03;;;5.40;;
7340;SDS011;6870;50.944;6.932;2023-06-14T03:31:20;7.97;;;6.00;;
7340;SDS011;6870;50.944;6.932;2023-06-14T03:33:50;6.00;;;5.50;;
7340;SDS011;6870;50.944;6.932;2023-06-14T03:36:18;6.67;;;5.97;;
7340;SDS011;6870;50.944;6.932;2023-06-14T03:38:46;6.63;;;5.60;;
7340;SDS011;6870;50.944;6.932;2023-06-14T03:41:16;6.13;;;5.50;;
7340;SDS011;6870;50.944;6.932;2023-06-14T03:43:44;6.80;;;5.90;;
7340;SDS011;6870;50.944;6.932;2023-06-14T03:46:12;8.40;;;5.33;;
7340;SDS011;6870;50.944;6.932;2023-06-14T03:48:40;6.03;;;5.10;;
7340;SDS011;6870;50.944;6.932;2023-06-14T03:51:08;6.73;;;5.53;;
7340;SDS011;6870;50.944;6.932;2023-06-14T03:53:36;5.77;;;5.20;;
7340;SDS011;6870;50.944;6.932;2023-06-14T03:56:25;6.10;;;5.30;;
7340;SDS011;6870;50.944;6.932;2023-06-14T03:58:54;8.73;;;6.17;;
7340;SDS011;6870;50.944;6.932;2023-06-14T04:01:22;7.00;;;6.27;;
7340;SDS011;6870;50.944;6.932;2023-06-14T04:03:56;9.73;;;5.37;;
7340;SDS011;6870;50.944;6.932;2023-06-14T04:06:24;6.13;;;5.13;;
7340;SDS011;6870;50.944;6.932;2023-06-14T04:08:58;6.63;;;5.40;;
7340;SDS011;6870;50.944;6.932;2023-06-14T04:11:32;8.20;;;5.07;;
7340;SDS011;6870;50.944;6.932;2023-06-14T04:14:01;6.03;;;5.23;;
7340;SDS011;6870;50.944;6.932;2023-06-14T04:16:30;5.63;;;4.90;;
7340;SDS011;6870;50.944;6.932;2023-06-14T04:18:58;6.47;;;5.30;;
7340;SDS011;6870;50.944;6.932;2023-06-14T04:21:26;9.07;;;5.50;;
7340;SDS011;6870;50.944;6.932;2023-06-14T04:23:55;6.23;;;5.43;;
7340;SDS011;6870;50.944;6.932;2023-06-14T04:26:23;6.20;;;5.60;;
7340;SDS011;6870;50.944;6.932;2023-06-14T04:28:57;6.37;;;5.67;;
7340;SDS011;6870;50.944;6.932;2023-06-14T04:31:28;5.97;;;4.83;;
7340;SDS011;6870;50.944;6.932;2023-06-14T04:33:59;7.87;;;5.30;;
7340;SDS011;6870;50.944;6.932;2023-06-14T04:36:31;8.20;;;5.33;;
7340;SDS011;6870;50.944;6.932;2023-06-14T04:39:03;5.40;;;4.80;;
7340;SDS011;6870;50.944;6.932;2023-06-14T04:41:31;5.90;;;5.20;;
7340;SDS011;6870;50.944;6.932;2023-06-14T04:44:00;5.40;;;4.90;;
7340;SDS011;6870;50.944;6.932;2023-06-14T04:46:29;8.90;;;5.27;;
7340;SDS011;6870;50.944;6.932;2023-06-14T04:48:59;6.30;;;5.57;;
7340;SDS011;6870;50.944;6.932;2023-06-14T04:51:28;6.73;;;5.40;;
7340;SDS011;6870;50.944;6.932;2023-06-14T04:53:57;6.70;;;4.90;;
7340;SDS011;6870;50.944;6.932;2023-06-14T04:56:25;4.77;;;4.37;;
7340;SDS011;6870;50.944;6.932;2023-06-14T04:58:55;6.83;;;4.37;;
7340;SDS011;6870;50.944;6.932;2023-06-14T05:01:25;6.40;;;5.07;;
7340;SDS011;6870;50.944;6.932;2023-06-14T05:03:53;6.67;;;5.00;;
7340;SDS011;6870;50.944;6.932;2023-06-14T05:06:21;6.03;;;5.43;;
7340;SDS011;6870;50.944;6.932;2023-06-14T05:08:48;6.27;;;5.10;;
7340;SDS011;6870;50.944;6.932;2023-06-14T05:11:17;6.23;;;5.63;;
7340;SDS011;6870;50.944;6.932;2023-06-14T05:13:45;6.73;;;5.13;;
7340;SDS011;6870;50.944;6.932;2023-06-14T05:16:13;7.63;;;5.20;;
7340;SDS011;6870;50.944;6.932;2023-06-14T05:18:47;5.90;;;5.23;;
7340;SDS011;6870;50.944;6.932;2023-06-14T05:21:15;6.03;;;5.43;;
7340;SDS011;6870;50.944;6.932;2023-06-14T05:23:44;7.33;;;4.63;;
7340;SDS011;6870;50.944;6.932;2023-06-14T05:26:12;5.77;;;4.90;;
7340;SDS011;6870;50.944;6.932;2023-06-14T05:28:41;5.67;;;5.17;;
7340;SDS011;6870;50.944;6.932;2023-06-14T05:31:09;5.03;;;4.53;;
7340;SDS011;6870;50.944;6.932;2023-06-14T05:33:37;7.57;;;5.57;;
7340;SDS011;6870;50.944;6.932;2023-06-14T05:36:06;5.10;;;4.57;;
7340;SDS011;6870;50.944;6.932;2023-06-14T05:38:34;5.53;;;5.03;;
7340;SDS011;6870;50.944;6.932;2023-06-14T05:41:02;5.67;;;4.30;;
7340;SDS011;6870;50.944;6.932;2023-06-14T05:43:30;5.20;;;4.70;;
7340;SDS011;6870;50.944;6.932;2023-06-14T05:45:59;7.20;;;4.53;;
7340;SDS011;6870;50.944;6.932;2023-06-14T05:48:27;5.77;;;4.67;;
7340;SDS011;6870;50.944;6.932;2023-06-14T05:50:58;7.00;;;4.60;;
7340;SDS011;6870;50.944;6.932;2023-06-14T05:53:28;4.97;;;4.50;;
7340;SDS011;6870;50.944;6.932;2023-06-14T05:55:56;4.70;;;4.30;;
7340;SDS011;6870;50.944;6.932;2023-06-14T05:58:24;4.90;;;4.40;;
7340;SDS011;6870;50.944;6.932;2023-06-14T06:00:52;5.30;;;4.80;;
7340;SDS011;6870;50.944;6.932;2023-06-14T06:03:20;5.10;;;4.60;;
7340;SDS011;6870;50.944;6.932;2023-06-14T06:05:49;4.30;;;3.90;;
7340;SDS011;6870;50.944;6.932;2023-06-14T06:08:17;10.13;;;4.90;;
7340;SDS011;6870;50.944;6.932;2023-06-14T06:10:46;5.53;;;4.93;;
7340;SDS011;6870;50.944;6.932;2023-06-14T06:13:14;7.03;;;4.80;;
7340;SDS011;6870;50.944;6.932;2023-06-14T06:15:42;5.00;;;4.50;;
7340;SDS011;6870;50.944;6.932;2023-06-14T06:18:11;5.50;;;4.53;;
7340;SDS011;6870;50.944;6.932;2023-06-14T06:20:39;5.53;;;5.00;;
7340;SDS011;6870;50.944;6.932;2023-06-14T06:23:07;7.20;;;4.57;;
7340;SDS011;6870;50.944;6.932;2023-06-14T06:25:36;5.50;;;4.20;;
7340;SDS011;6870;50.944;6.932;2023-06-14T06:28:05;5.90;;;4.43;;
7340;SDS011;6870;50.944;6.932;2023-06-14T06:30:33;4.80;;;4.30;;
7340;SDS011;6870;50.944;6.932;2023-06-14T06:33:02;7.20;;;4.30;;
7340;SDS011;6870;50.944;6.932;2023-06-14T06:35:30;4.03;;;3.63;;
7340;SDS011;6870;50.944;6.932;2023-06-14T06:37:59;4.30;;;3.90;;
7340;SDS011;6870;50.944;6.932;2023-06-14T06:40:27;4.97;;;3.90;;
7340;SDS011;6870;50.944;6.932;2023-06-14T06:42:56;4.47;;;3.87;;
7340;SDS011;6870;50.944;6.932;2023-06-14T06:45:25;4.73;;;4.30;;
7340;SDS011;6870;50.944;6.932;2023-06-14T06:47:53;3.80;;;3.50;;
7340;SDS011;6870;50.944;6.932;2023-06-14T06:50:21;8.23;;;3.70;;
7340;SDS011;6870;50.944;6.932;2023-06-14T06:52:51;7.23;;;3.57;;
7340;SDS011;6870;50.944;6.932;2023-06-14T06:55:19;5.27;;;4.27;;
7340;SDS011;6870;50.944;6.932;2023-06-14T06:57:48;6.80;;;4.10;;
7340;SDS011;6870;50.944;6.932;2023-06-14T07:00:18;4.60;;;4.10;;
7340;SDS011;6870;50.944;6.932;2023-06-14T07:02:48;7.23;;;3.70;;
7340;SDS011;6870;50.944;6.932;2023-06-14T07:05:17;11.53;;;4.20;;
7340;SDS011;6870;50.944;6.932;2023-06-14T07:07:45;9.47;;;5.00;;
7340;SDS011;6870;50.944;6.932;2023-06-14T07:10:13;6.50;;;3.60;;
7340;SDS011;6870;50.944;6.932;2023-06-14T07:12:41;7.13;;;3.80;;
7340;SDS011;6870;50.944;6.932;2023-06-14T07:15:09;7.13;;;3.90;;
7340;SDS011;6870;50.944;6.932;2023-06-14T07:17:38;7.57;;;4.57;;
7340;SDS011;6870;50.944;6.932;2023-06-14T07:20:09;16.60;;;4.30;;
7340;SDS011;6870;50.944;6.932;2023-06-14T07:22:39;4.67;;;3.23;;
7340;SDS011;6870;50.944;6.932;2023-06-14T07:25:08;5.40;;;4.10;;
7340;SDS011;6870;50.944;6.932;2023-06-14T07:27:38;6.50;;;3.53;;
7340;SDS011;6870;50.944;6.932;2023-06-14T07:30:07;4.27;;;3.47;;
7340;SDS011;6870;50.944;6.932;2023-06-14T07:32:36;3.93;;;3.40;;
7340;SDS011;6870;50.944;6.932;2023-06-14T07:35:05;3.73;;;3.33;;
7340;SDS011;6870;50.944;6.932;2023-06-14T07:37:35;4.30;;;2.90;;
7340;SDS011;6870;50.944;6.932;2023-06-14T07:40:03;4.77;;;3.47;;
7340;SDS011;6870;50.944;6.932;2023-06-14T07:42:33;3.47;;;3.17;;
7340;SDS011;6870;50.944;6.932;2023-06-14T07:45:02;4.77;;;2.90;;
7340;SDS011;6870;50.944;6.932;2023-06-14T07:47:31;7.47;;;2.83;;
7340;SDS011;6870;50.944;6.932;2023-06-14T07:49:59;4.90;;;4.40;;
7340;SDS011;6870;50.944;6.932;2023-06-14T07:52:27;3.30;;;2.90;;
7340;SDS011;6870;50.944;6.932;2023-06-14T07:54:57;4.30;;;3.30;;
7340;SDS011;6870;50.944;6.932;2023-06-14T07:57:25;4.17;;;2.70;;
7340;SDS011;6870;50.944;6.932;2023-06-14T07:59:53;3.37;;;2.80;;
7340;SDS011;6870;50.944;6.932;2023-06-14T08:02:21;5.50;;;2.83;;
7340;SDS011;6870;50.944;6.932;2023-06-14T08:04:49;2.67;;;2.40;;
7340;SDS011;6870;50.944;6.932;2023-06-14T08:07:19;2.77;;;2.57;;
7340;SDS011;6870;50.944;6.932;2023-06-14T08:09:47;2.53;;;2.23;;
7340;SDS011;6870;50.944;6.932;2023-06-14T08:12:16;3.50;;;2.53;;
7340;SDS011;6870;50.944;6.932;2023-06-14T08:14:44;2.53;;;2.33;;
7340;SDS011;6870;50.944;6.932;2023-06-14T08:17:20;4.73;;;2.77;;
7340;SDS011;6870;50.944;6.932;2023-06-14T08:19:48;2.67;;;2.20;;
7340;SDS011;6870;50.944;6.932;2023-06-14T08:22:17;2.50;;;2.17;;
7340;SDS011;6870;50.944;6.932;2023-06-14T08:24:45;3.30;;;2.27;;
7340;SDS011;6870;50.944;6.932;2023-06-14T08:27:13;3.50;;;2.33;;
7340;SDS011;6870;50.944;6.932;2023-06-14T08:29:43;3.30;;;1.80;;
7340;SDS011;6870;50.944;6.932;2023-06-14T08:32:11;2.67;;;1.77;;
7340;SDS011;6870;50.944;6.932;2023-06-14T08:34:39;8.67;;;2.37;;
7340;SDS011;6870;50.944;6.932;2023-06-14T08:37:15;2.97;;;2.00;;
7340;SDS011;6870;50.944;6.932;2023-06-14T08:39:43;5.27;;;2.37;;
7340;SDS011;6870;50.944;6.932;2023-06-14T08:42:11;3.90;;;2.40;;
7340;SDS011;6870;50.944;6.932;2023-06-14T08:44:58;2.73;;;2.10;;
7340;SDS011;6870;50.944;6.932;2023-06-14T08:47:27;2.57;;;1.97;;
7340;SDS011;6870;50.944;6.932;2023-06-14T08:49:55;3.43;;;1.87;;
7340;SDS011;6870;50.944;6.932;2023-06-14T08:52:25;3.83;;;1.80;;
7340;SDS011;6870;50.944;6.932;2023-06-14T08:54:59;2.30;;;1.87;;
7340;SDS011;6870;50.944;6.932;2023-06-14T08:57:28;3.77;;;2.00;;
7340;SDS011;6870;50.944;6.932;2023-06-14T08:59:59;2.10;;;1.60;;
7340;SDS011;6870;50.944;6.932;2023-06-14T09:02:36;1.93;;;1.73;;
7340;SDS011;6870;50.944;6.932;2023-06-14T09:05:04;2.60;;;1.60;;
7340;SDS011;6870;50.944;6.932;2023-06-14T09:07:34;1.80;;;1.57;;
7340;SDS011;6870;50.944;6.932;2023-06-14T09:10:07;2.90;;;1.97;;
7340;SDS011;6870;50.944;6.932;2023-06-14T09:12:36;4.10;;;2.00;;
7340;SDS011;6870;50.944;6.932;2023-06-14T09:15:07;5.10;;;2.30;;
7340;SDS011;6870;50.944;6.932;2023-06-14T09:17:37;2.20;;;1.73;;
7340;SDS011;6870;50.944;6.932;2023-06-14T09:20:06;2.70;;;1.70;;
7340;SDS011;6870;50.944;6.932;2023-06-14T09:22:36;2.63;;;2.17;;
7340;SDS011;6870;50.944;6.932;2023-06-14T09:25:05;3.40;;;2.00;;
7340;SDS011;6870;50.944;6.932;2023-06-14T09:27:34;2.70;;;2.03;;
7340;SDS011;6870;50.944;6.932;2023-06-14T09:30:08;5.47;;;1.93;;
7340;SDS011;6870;50.944;6.932;2023-06-14T09:32:37;2.00;;;1.63;;
7340;SDS011;6870;50.944;6.932;2023-06-14T09:35:07;5.30;;;1.97;;
7340;SDS011;6870;50.944;6.932;2023-06-14T09:37:36;3.83;;;1.97;;
7340;SDS011;6870;50.944;6.932;2023-06-14T09:40:05;2.87;;;2.20;;
7340;SDS011;6870;50.944;6.932;2023-06-14T09:42:34;2.80;;;2.27;;
7340;SDS011;6870;50.944;6.932;2023-06-14T09:45:03;3.13;;;1.80;;
7340;SDS011;6870;50.944;6.932;2023-06-14T09:47:34;3.07;;;1.90;;
7340;SDS011;6870;50.944;6.932;2023-06-14T09:50:02;2.17;;;1.60;;
7340;SDS011;6870;50.944;6.932;2023-06-14T09:52:31;9.60;;;2.30;;
7340;SDS011;6870;50.944;6.932;2023-06-14T09:54:59;3.63;;;2.17;;
7340;SDS011;6870;50.944;6.932;2023-06-14T09:57:37;4.13;;;2.37;;
7340;SDS011;6870;50.944;6.932;2023-06-14T10:00:08;5.37;;;2.20;;
7340;SDS011;6870;50.944;6.932;2023-06-14T10:02:40;8.20;;;1.80;;
7340;SDS011;6870;50.944;6.932;2023-06-14T10:05:14;3.57;;;2.50;;
7340;SDS011;6870;50.944;6.932;2023-06-14T10:07:48;5.77;;;2.20;;
7340;SDS011;6870;50.944;6.932;2023-06-14T10:10:20;2.67;;;2.13;;
7340;SDS011;6870;50.944;6.932;2023-06-14T10:12:49;3.87;;;2.13;;
7340;SDS011;6870;50.944;6.932;2023-06-14T10:15:19;3.27;;;2.20;;
7340;SDS011;6870;50.944;6.932;2023-06-14T10:17:57;6.00;;;2.37;;
7340;SDS011;6870;50.944;6.932;2023-06-14T10:20:30;3.80;;;1.93;;
7340;SDS011;6870;50.944;6.932;2023-06-14T10:23:06;3.20;;;1.83;;
7340;SDS011;6870;50.944;6.932;2023-06-14T10:25:40;5.60;;;2.30;;
7340;SDS011;6870;50.944;6.932;2023-06-14T10:28:14;4.60;;;2.10;;
7340;SDS011;6870;50.944;6.932;2023-06-14T10:31:03;2.60;;;1.97;;
7340;SDS011;6870;50.944;6.932;2023-06-14T10:33:34;2.80;;;1.97;;
7340;SDS011;6870;50.944;6.932;2023-06-14T10:36:25;4.97;;;2.00;;
7340;SDS011;6870;50.944;6.932;2023-06-14T10:38:57;2.80;;;2.03;;
7340;SDS011;6870;50.944;6.932;2023-06-14T10:41:26;4.93;;;1.73;;
7340;SDS011;6870;50.944;6.932;2023-06-14T10:47:21;4.30;;;2.70;;
7340;SDS011;6870;50.944;6.932;2023-06-14T10:49:56;2.67;;;2.30;;
7340;SDS011;6870;50.944;6.932;2023-06-14T10:52:32;3.93;;;2.30;;
7340;SDS011;6870;50.944;6.932;2023-06-14T10:55:03;2.50;;;2.03;;
7340;SDS011;6870;50.944;6.932;2023-06-14T10:57:42;3.90;;;2.30;;
7340;SDS011;6870;50.944;6.932;2023-06-14T11:00:18;2.93;;;1.87;;
7340;SDS011;6870;50.944;6.932;2023-06-14T11:02:51;3.80;;;2.00;;
7340;SDS011;6870;50.944;6.932;2023-06-14T11:05:50;3.70;;;2.10;;
7340;SDS011;6870;50.944;6.932;2023-06-14T11:08:27;2.07;;;1.70;;
7340;SDS011;6870;50.944;6.932;2023-06-14T11:11:07;2.13;;;1.77;;
7340;SDS011;6870;50.944;6.932;2023-06-14T11:13:38;3.83;;;1.90;;
7340;SDS011;6870;50.944;6.932;2023-06-14T11:16:10;2.90;;;2.10;;
7340;SDS011;6870;50.944;6.932;2023-06-14T11:18:39;12.43;;;1.90;;
7340;SDS011;6870;50.944;6.932;2023-06-14T11:21:09;1.80;;;1.50;;
7340;SDS011;6870;50.944;6.932;2023-06-14T11:23:37;4.80;;;2.27;;
7340;SDS011;6870;50.944;6.932;2023-06-14T11:26:05;3.27;;;2.33;;
7340;SDS011;6870;50.944;6.932;2023-06-14T11:28:37;3.47;;;2.20;;
7340;SDS011;6870;50.944;6.932;2023-06-14T11:31:06;3.50;;;1.97;;
7340;SDS011;6870;50.944;6.932;2023-06-14T11:33:35;2.13;;;1.50;;
7340;SDS011;6870;50.944;6.932;2023-06-14T11:36:03;7.43;;;2.23;;
7340;SDS011;6870;50.944;6.932;2023-06-14T11:38:36;2.87;;;2.30;;
7340;SDS011;6870;50.944;6.932;2023-06-14T11:41:04;2.80;;;2.07;;
7340;SDS011;6870;50.944;6.932;2023-06-14T11:43:32;2.60;;;1.90;;
7340;SDS011;6870;50.944;6.932;2023-06-14T11:46:01;3.80;;;2.10;;
7340;SDS011;6870;50.944;6.932;2023-06-14T11:48:37;2.10;;;1.80;;
7340;SDS011;6870;50.944;6.932;2023-06-14T11:51:05;2.40;;;1.93;;
7340;SDS011;6870;50.944;6.932;2023-06-14T11:53:34;3.17;;;2.17;;
7340;SDS011;6870;50.944;6.932;2023-06-14T11:56:04;3.10;;;2.20;;
7340;SDS011;6870;50.944;6.932;2023-06-14T11:58:33;3.10;;;1.60;;
7340;SDS011;6870;50.944;6.932;2023-06-14T12:01:02;2.00;;;1.80;;
7340;SDS011;6870;50.944;6.932;2023-06-14T12:03:31;4.40;;;1.80;;
7340;SDS011;6870;50.944;6.932;2023-06-14T12:06:02;3.40;;;2.40;;
7340;SDS011;6870;50.944;6.932;2023-06-14T12:08:35;2.43;;;1.73;;
7340;SDS011;6870;50.944;6.932;2023-06-14T12:11:10;2.70;;;1.93;;
7340;SDS011;6870;50.944;6.932;2023-06-14T12:13:39;3.00;;;2.10;;
7340;SDS011;6870;50.944;6.932;2023-06-14T12:16:08;2.30;;;2.10;;
7340;SDS011;6870;50.944;6.932;2023-06-14T12:18:37;4.70;;;1.87;;
7340;SDS011;6870;50.944;6.932;2023-06-14T12:21:07;3.20;;;1.87;;
7340;SDS011;6870;50.944;6.932;2023-06-14T12:23:43;2.10;;;1.60;;
7340;SDS011;6870;50.944;6.932;2023-06-14T12:26:15;6.53;;;1.97;;
7340;SDS011;6870;50.944;6.932;2023-06-14T12:28:45;1.90;;;1.63;;
7340;SDS011;6870;50.944;6.932;2023-06-14T12:31:15;3.50;;;2.40;;
7340;SDS011;6870;50.944;6.932;2023-06-14T12:33:45;2.40;;;2.03;;
7340;SDS011;6870;50.944;6.932;2023-06-14T12:36:15;2.47;;;1.63;;
7340;SDS011;6870;50.944;6.932;2023-06-14T12:38:43;2.70;;;2.03;;
7340;SDS011;6870;50.944;6.932;2023-06-14T12:41:12;2.43;;;2.13;;
7340;SDS011;6870;50.944;6.932;2023-06-14T12:43:42;1.43;;;1.27;;
7340;SDS011;6870;50.944;6.932;2023-06-14T12:46:10;2.60;;;1.90;;
7340;SDS011;6870;50.944;6.932;2023-06-14T12:48:38;3.13;;;2.30;;
7340;SDS011;6870;50.944;6.932;2023-06-14T12:51:06;2.63;;;2.10;;
7340;SDS011;6870;50.944;6.932;2023-06-14T12:53:33;2.33;;;2.10;;
7340;SDS011;6870;50.944;6.932;2023-06-14T12:56:02;2.50;;;2.30;;
7340;SDS011;6870;50.944;6.932;2023-06-14T12:58:31;2.00;;;1.77;;
7340;SDS011;6870;50.944;6.932;2023-06-14T13:00:59;3.10;;;1.90;;
7340;SDS011;6870;50.944;6.932;2023-06-14T13:03:27;1.93;;;1.53;;
7340;SDS011;6870;50.944;6.932;2023-06-14T13:05:55;3.20;;;2.00;;
7340;SDS011;6870;50.944;6.932;2023-06-14T13:08:23;1.87;;;1.63;;
7340;SDS011;6870;50.944;6.932;2023-06-14T13:10:51;2.03;;;1.60;;
7340;SDS011;6870;50.944;6.932;2023-06-14T13:13:19;3.53;;;1.93;;
7340;SDS011;6870;50.944;6.932;2023-06-14T13:15:49;3.30;;;1.87;;
7340;SDS011;6870;50.944;6.932;2023-06-14T13:18:17;1.97;;;1.67;;
7340;SDS011;6870;50.944;6.932;2023-06-14T13:20:46;2.77;;;1.80;;
7340;SDS011;6870;50.944;6.932;2023-06-14T13:23:15;1.67;;;1.50;;
7340;SDS011;6870;50.944;6.932;2023-06-14T13:25:44;4.83;;;1.83;;
7340;SDS011;6870;50.944;6.932;2023-06-14T13:28:12;4.87;;;2.00;;
7340;SDS011;6870;50.944;6.932;2023-06-14T13:30:40;2.03;;;1.57;;
7340;SDS011;6870;50.944;6.932;2023-06-14T13:33:09;2.90;;;1.70;;
7340;SDS011;6870;50.944;6.932;2023-06-14T13:35:38;5.00;;;2.40;;
7340;SDS011;6870;50.944;6.932;2023-06-14T13:38:06;5.73;;;3.63;;
7340;SDS011;6870;50.944;6.932;2023-06-14T13:40:33;6.10;;;4.30;;
7340;SDS011;6870;50.944;6.932;2023-06-14T13:43:02;10.23;;;4.10;;
7340;SDS011;6870;50.944;6.932;2023-06-14T13:45:30;9.23;;;4.30;;
7340;SDS011;6870;50.944;6.932;2023-06-14T13:47:57;5.80;;;3.40;;
7340;SDS011;6870;50.944;6.932;2023-06-14T13:50:28;4.80;;;3.83;;
7340;SDS011;6870;50.944;6.932;2023-06-14T13:52:57;4.83;;;3.87;;
7340;SDS011;6870;50.944;6.932;2023-06-14T13:55:25;5.60;;;3.70;;
7340;SDS011;6870;50.944;6.932;2023-06-14T13:57:53;5.07;;;3.00;;
7340;SDS011;6870;50.944;6.932;2023-06-14T14:00:22;4.47;;;3.27;;
7340;SDS011;6870;50.944;6.932;2023-06-14T14:02:51;3.83;;;3.27;;
7340;SDS011;6870;50.944;6.932;2023-06-14T14:05:19;4.60;;;3.20;;
7340;SDS011;6870;50.944;6.932;2023-06-14T14:07:48;5.57;;;3.80;;
7340;SDS011;6870;50.944;6.932;2023-06-14T14:10:18;3.30;;;2.90;;
7340;SDS011;6870;50.944;6.932;2023-06-14T14:12:46;4.20;;;2.77;;
7340;SDS011;6870;50.944;6.932;2023-06-14T14:15:15;5.83;;;3.10;;
7340;SDS011;6870;50.944;6.932;2023-06-14T14:17:43;3.90;;;3.20;;
7340;SDS011;6870;50.944;6.932;2023-06-14T14:20:11;4.17;;;3.37;;
7340;SDS011;6870;50.944;6.932;2023-06-14T14:22:42;4.57;;;2.83;;
7340;SDS011;6870;50.944;6.932;2023-06-14T14:25:11;6.57;;;3.30;;
7340;SDS011;6870;50.944;6.932;2023-06-14T14:27:40;4.27;;;2.87;;
7340;SDS011;6870;50.944;6.932;2023-06-14T14:30:08;3.00;;;2.73;;
7340;SDS011;6870;50.944;6.932;2023-06-14T14:32:37;4.47;;;3.57;;
7340;SDS011;6870;50.944;6.932;2023-06-14T14:35:06;5.30;;;3.30;;
7340;SDS011;6870;50.944;6.932;2023-06-14T14:37:35;4.20;;;2.90;;
7340;SDS011;6870;50.944;6.932;2023-06-14T14:40:03;5.60;;;2.80;;
7340;SDS011;6870;50.944;6.932;2023-06-14T14:42:34;3.30;;;2.60;;
7340;SDS011;6870;50.944;6.932;2023-06-14T14:45:03;3.80;;;2.67;;
7340;SDS011;6870;50.944;6.932;2023-06-14T14:47:32;2.87;;;2.63;;
7340;SDS011;6870;50.944;6.932;2023-06-14T14:50:00;4.20;;;2.70;;
7340;SDS011;6870;50.944;6.932;2023-06-14T14:52:29;2.87;;;2.63;;
7340;SDS011;6870;50.944;6.932;2023-06-14T14:54:57;3.50;;;2.70;;
7340;SDS011;6870;50.944;6.932;2023-06-14T14:57:24;5.30;;;2.93;;
7340;SDS011;6870;50.944;6.932;2023-06-14T14:59:54;2.77;;;2.37;;
7340;SDS011;6870;50.944;6.932;2023-06-14T15:02:22;3.70;;;2.50;;
7340;SDS011;6870;50.944;6.932;2023-06-14T15:04:50;3.03;;;2.50;;
7340;SDS011;6870;50.944;6.932;2023-06-14T15:07:18;4.50;;;3.27;;
7340;SDS011;6870;50.944;6.932;2023-06-14T15:09:46;6.40;;;2.80;;
7340;SDS011;6870;50.944;6.932;2023-06-14T15:12:16;3.77;;;2.73;;
7340;SDS011;6870;50.944;6.932;2023-06-14T15:14:46;4.10;;;2.90;;
7340;SDS011;6870;50.944;6.932;2023-06-14T15:17:15;3.77;;;2.70;;
7340;SDS011;6870;50.944;6.932;2023-06-14T15:19:44;4.03;;;2.47;;
7340;SDS011;6870;50.944;6.932;2023-06-14T15:22:13;3.90;;;2.70;;
7340;SDS011;6870;50.944;6.932;2023-06-14T15:24:42;2.93;;;2.43;;
7340;SDS011;6870;50.944;6.932;2023-06-14T15:27:14;3.73;;;2.23;;
7340;SDS011;6870;50.944;6.932;2023-06-14T15:29:42;3.33;;;2.57;;
7340;SDS011;6870;50.944;6.932;2023-06-14T15:32:16;4.07;;;2.63;;